Time;durP1;ratioP1;P1;durP2;ratioP2;P2;SDS_P1;SDS_P2;PMS_P1;PMS_P2;Temp;Humidity;BMP_temperature;BMP_pressure;BME280_temperature;BME280_humidity;BME280_pressure;Samples;Min_cycle;Max_cycle;Signal;HPM_P1;HPM_P2
2021/12/06 00:00:33;;;;;;;;;12.00;8.25;;;;;5.91;75.69;100820.75;4966529;28;45544;-73
2021/12/06 00:03:03;;;;;;;;;23.75;19.50;;;;;5.98;75.74;100834.22;4961007;28;45425;-73
2021/12/06 00:05:29;;;;;;;;;77.50;53.25;;;;;5.94;75.74;100828.81;4978728;28;45339;-74
2021/12/06 00:07:55;;;;;;;;;18.25;12.50;;;;;5.97;75.25;100831.56;4972061;28;47105;-73
2021/12/06 00:10:21;;;;;;;;;8.00;5.00;;;;;5.96;75.09;100832.38;4998814;28;45327;-73
2021/12/06 00:12:46;;;;;;;;;6.00;6.00;;;;;5.99;75.38;100843.91;4990644;28;45740;-74
2021/12/06 00:15:12;;;;;;;;;6.25;4.25;;;;;6.04;75.61;100851.97;4974385;28;46826;-73
2021/12/06 00:17:38;;;;;;;;;24.25;22.25;;;;;6.04;75.50;100860.72;4961266;28;45449;-73
2021/12/06 00:20:08;;;;;;;;;11.50;6.00;;;;;6.00;75.11;100845.69;4967399;28;45287;-73
2021/12/06 00:22:34;;;;;;;;;9.75;8.00;;;;;6.05;75.77;100859.03;5011492;28;45553;-73
2021/12/06 00:24:59;;;;;;;;;7.00;6.75;;;;;6.01;75.15;100844.84;4966591;28;45323;-73
2021/12/06 00:27:26;;;;;;;;;11.00;9.25;;;;;6.04;76.30;100844.09;4976314;28;45631;-74
2021/12/06 00:29:53;;;;;;;;;9.75;6.75;;;;;6.03;75.66;100837.06;4965460;28;45265;-73
2021/12/06 00:32:20;;;;;;;;;7.50;7.25;;;;;5.95;75.32;100831.47;4976425;28;45230;-74
2021/12/06 00:34:45;;;;;;;;;5.00;5.00;;;;;6.01;75.89;100855.34;4968126;28;45390;-73
2021/12/06 00:37:18;;;;;;;;;10.50;5.50;;;;;5.94;75.66;100845.44;4958612;28;46179;-73
2021/12/06 00:39:57;;;;;;;;;7.25;3.00;;;;;5.99;74.98;100856.09;4965901;28;45367;-73
2021/12/06 00:42:25;;;;;;;;;3.25;3.00;;;;;5.97;76.23;100860.41;4974457;28;45394;-73
2021/12/06 00:44:52;;;;;;;;;6.00;4.50;;;;;6.02;75.52;100865.03;4967438;28;45318;-73
2021/12/06 00:47:18;;;;;;;;;5.25;3.75;;;;;5.89;76.31;100844.31;5031999;28;46637;-73
2021/12/06 00:49:45;;;;;;;;;2.50;2.50;;;;;6.09;75.50;100881.03;4968147;28;45222;-73
2021/12/06 00:52:11;;;;;;;;;5.25;3.00;;;;;5.98;75.46;100863.09;4958850;28;45339;-74
2021/12/06 00:54:36;;;;;;;;;5.50;3.75;;;;;6.02;75.64;100874.59;4969150;28;45625;-73
2021/12/06 00:57:04;;;;;;;;;2.75;2.75;;;;;6.09;76.28;100896.78;4958255;28;46813;-73
2021/12/06 00:59:30;;;;;;;;;4.25;4.25;;;;;6.13;75.83;100889.09;4969329;28;45268;-73
2021/12/06 01:01:56;;;;;;;;;3.75;2.00;;;;;5.98;75.45;100873.59;4958423;28;45188;-73
2021/12/06 01:04:22;;;;;;;;;3.00;1.75;;;;;6.15;75.84;100900.56;4968965;28;45460;-73
2021/12/06 01:06:47;;;;;;;;;9.00;4.00;;;;;6.07;75.39;100893.19;4973294;28;47389;-73
2021/12/06 01:09:12;;;;;;;;;5.75;3.50;;;;;6.16;75.55;100912.88;4965428;28;45232;-73
2021/12/06 01:11:38;;;;;;;;;7.00;6.00;;;;;6.11;75.88;100901.28;4961931;28;45205;-73
2021/12/06 01:14:03;;;;;;;;;6.00;3.00;;;;;6.16;75.98;100910.25;4971312;28;45472;-73
2021/12/06 01:16:30;;;;;;;;;6.25;3.00;;;;;6.08;75.48;100895.91;4975366;28;45254;-73
2021/12/06 01:18:56;;;;;;;;;7.50;3.50;;;;;6.14;75.65;100911.00;4987895;28;45461;-73
2021/12/06 01:21:33;;;;;;;;;7.00;6.25;;;;;6.08;75.61;100902.84;4977693;28;45418;-74
2021/12/06 01:24:00;;;;;;;;;14.25;7.50;;;;;6.21;76.26;100927.06;4984068;28;47299;-74
2021/12/06 01:39:53;;;;;;;;;6.50;3.00;;;;;6.17;76.26;100926.88;4965646;28;45316;-74
2021/12/06 01:42:19;;;;;;;;;8.75;5.00;;;;;6.11;76.13;100930.13;4958933;28;45471;-74
2021/12/06 01:44:47;;;;;;;;;6.75;4.25;;;;;6.09;76.58;100930.91;4970341;28;46075;-74
2021/12/06 01:47:22;;;;;;;;;5.25;3.00;;;;;6.14;76.49;100934.63;5035592;28;45466;-74
2021/12/06 01:49:52;;;;;;;;;4.00;4.00;;;;;6.14;76.96;100938.16;4972538;28;45351;-74
2021/12/06 01:52:25;;;;;;;;;8.00;6.00;;;;;6.19;77.56;100943.56;4972653;28;45250;-74
2021/12/06 01:54:51;;;;;;;;;7.00;4.25;;;;;6.18;77.02;100947.94;4958045;28;45243;-74
2021/12/06 01:57:17;;;;;;;;;7.00;6.00;;;;;6.21;76.92;100962.94;4958276;28;45360;-74
2021/12/06 01:59:43;;;;;;;;;6.00;6.00;;;;;6.15;77.55;100957.41;4968096;28;45294;-74
2021/12/06 02:02:10;;;;;;;;;7.25;7.00;;;;;6.15;76.43;100962.66;4957358;28;45318;-74
2021/12/06 02:04:38;;;;;;;;;8.00;6.00;;;;;6.11;77.38;100952.88;4983186;28;45580;-74
2021/12/06 02:07:06;;;;;;;;;6.75;6.75;;;;;6.15;77.44;100962.66;4957024;28;47167;-74
2021/12/06 02:09:32;;;;;;;;;7.75;5.50;;;;;6.24;77.51;100986.69;4975410;28;45998;-74
2021/12/06 02:12:01;;;;;;;;;6.50;5.25;;;;;6.22;77.62;100975.25;4975644;27;45297;-74
2021/12/06 02:14:37;;;;;;;;;11.50;7.25;;;;;6.10;77.38;100961.56;4969224;28;45534;-74
2021/12/06 02:17:16;;;;;;;;;5.50;4.50;;;;;6.25;76.42;100989.38;4995515;28;45359;-74
2021/12/06 02:19:50;;;;;;;;;6.75;5.00;;;;;6.17;76.31;100972.41;4961346;28;45464;-74
2021/12/06 02:22:23;;;;;;;;;3.75;3.25;;;;;6.18;77.18;100987.31;4965953;28;45349;-74
2021/12/06 02:24:49;;;;;;;;;6.00;4.50;;;;;6.15;77.16;100979.28;4966824;28;45376;-74
2021/12/06 02:27:15;;;;;;;;;7.50;4.50;;;;;6.13;77.23;100977.44;4956766;28;47185;-74
2021/12/06 02:29:45;;;;;;;;;7.00;4.50;;;;;6.10;77.29;100967.69;4963839;28;44726;-74
2021/12/06 02:32:12;;;;;;;;;5.75;5.75;;;;;6.02;77.48;100950.69;4975495;28;45409;-74
2021/12/06 02:34:41;;;;;;;;;7.00;4.50;;;;;6.15;77.87;100981.91;4963316;28;45469;-74
2021/12/06 02:37:09;;;;;;;;;7.00;4.25;;;;;6.22;77.46;100989.25;4975552;28;46606;-73
2021/12/06 02:39:36;;;;;;;;;11.50;7.00;;;;;6.09;77.32;100970.25;4961334;28;45391;-73
2021/12/06 02:42:03;;;;;;;;;3.75;3.75;;;;;6.01;76.88;100952.44;4970336;28;45315;-73
2021/12/06 02:44:28;;;;;;;;;5.75;3.50;;;;;6.02;76.71;100962.13;4972223;28;46393;-73
2021/12/06 02:46:54;;;;;;;;;3.25;3.00;;;;;6.10;77.58;100980.81;5027368;28;45683;-73
2021/12/06 02:49:20;;;;;;;;;9.25;5.00;;;;;6.14;77.41;100981.88;4967588;28;45236;-73
2021/12/06 02:51:45;;;;;;;;;4.25;3.00;;;;;5.95;76.87;100948.66;4957304;28;45233;-73
2021/12/06 02:54:11;;;;;;;;;3.50;3.00;;;;;6.12;76.49;100988.75;4966536;28;47084;-74
2021/12/06 02:56:54;;;;;;;;;8.00;4.25;;;;;6.07;77.21;100975.44;4955772;28;47410;-73
2021/12/06 02:59:23;;;;;;;;;6.75;4.25;;;;;6.09;77.77;100981.66;4967853;28;45391;-73
2021/12/06 03:01:53;;;;;;;;;4.50;4.50;;;;;6.08;77.29;100979.88;4957004;28;45341;-73
2021/12/06 03:04:19;;;;;;;;;8.50;5.00;;;;;6.11;77.05;100995.75;4967251;28;45371;-74
2021/12/06 03:06:47;;;;;;;;;3.25;1.75;;;;;6.13;76.83;101004.56;4980808;28;45333;-73
2021/12/06 03:09:19;;;;;;;;;1.75;1.00;;;;;6.17;76.82;101011.75;4978356;28;45286;-73
2021/12/06 03:11:58;;;;;;;;;4.25;4.25;;;;;6.16;77.39;101012.59;5040655;28;45489;-73
2021/12/06 03:14:28;;;;;;;;;7.25;5.50;;;;;6.16;77.38;101020.47;4967417;28;45465;-73
2021/12/06 03:16:55;;;;;;;;;5.00;5.00;;;;;6.15;76.99;101017.78;4996405;28;46326;-74
2021/12/06 03:19:22;;;;;;;;;8.00;6.25;;;;;6.17;77.05;101027.50;4970231;28;45261;-74
2021/12/06 03:21:48;;;;;;;;;6.00;5.50;;;;;6.11;77.91;101014.13;4958266;28;45382;-74
2021/12/06 03:24:13;;;;;;;;;6.75;5.50;;;;;6.14;78.06;101019.50;4967693;28;46931;-74
2021/12/06 03:26:41;;;;;;;;;7.25;4.50;;;;;6.18;77.68;101029.31;4979172;28;45348;-74
2021/12/06 03:29:07;;;;;;;;;7.00;6.00;;;;;6.15;77.11;101017.78;4965872;28;45371;-74
2021/12/06 03:31:33;;;;;;;;;5.50;5.50;;;;;6.03;78.42;101002.38;4971301;28;45566;-74
2021/12/06 03:33:59;;;;;;;;;3.00;3.00;;;;;6.17;77.36;101027.50;4969015;28;45489;-74
2021/12/06 03:36:28;;;;;;;;;11.00;6.00;;;;;6.07;77.89;100996.41;4969554;28;48306;-74
2021/12/06 03:38:55;;;;;;;;;9.00;6.50;;;;;6.21;77.81;101008.44;4966248;28;45509;-74
2021/12/06 03:41:21;;;;;;;;;7.00;7.00;;;;;6.18;78.38;101005.69;4959779;28;45388;-74
2021/12/06 03:43:47;;;;;;;;;6.00;3.50;;;;;6.14;78.35;101010.75;4967598;28;45456;-74
2021/12/06 03:46:18;;;;;;;;;12.25;6.00;;;;;6.20;78.14;101032.00;5004921;28;48356;-74
2021/12/06 03:48:44;;;;;;;;;7.25;5.00;;;;;6.19;78.02;101030.19;4984894;28;45493;-74
2021/12/06 03:51:09;;;;;;;;;6.50;3.75;;;;;6.06;77.96;101007.75;4959485;28;45241;-74
2021/12/06 03:53:35;;;;;;;;;7.00;6.25;;;;;6.07;77.36;101012.16;4965588;28;45199;-74
2021/12/06 03:56:00;;;;;;;;;8.75;5.25;;;;;6.19;77.95;101028.50;4963782;28;45638;-74
2021/12/06 03:58:27;;;;;;;;;3.75;3.75;;;;;6.11;77.41;101018.47;4972833;28;45493;-73
2021/12/06 04:00:53;;;;;;;;;10.25;4.50;;;;;6.12;78.26;101015.91;4969278;28;45340;-74
2021/12/06 04:03:22;;;;;;;;;7.00;6.00;;;;;6.27;77.25;101053.38;4963207;28;45478;-74
2021/12/06 04:05:48;;;;;;;;;3.75;3.75;;;;;6.20;78.05;101048.66;4965041;28;45513;-74
2021/12/06 04:08:13;;;;;;;;;3.00;3.00;;;;;6.25;77.82;101052.38;4998200;28;45200;-74
2021/12/06 04:10:39;;;;;;;;;10.75;6.00;;;;;6.31;78.01;101069.25;4959523;28;45317;-73
2021/12/06 04:13:06;;;;;;;;;8.00;6.50;;;;;6.27;77.29;101063.88;4968423;28;45247;-73
2021/12/06 04:15:33;;;;;;;;;8.25;5.00;;;;;6.27;78.17;101063.88;4974102;28;46342;-74
2021/12/06 04:17:59;;;;;;;;;7.00;6.75;;;;;6.32;77.15;101078.91;4961677;28;45312;-73
2021/12/06 04:20:25;;;;;;;;;6.75;5.75;;;;;6.27;76.79;101071.75;4967543;28;45368;-74
2021/12/06 04:22:52;;;;;;;;;6.75;5.75;;;;;6.27;78.12;101082.25;4961217;28;47295;-74
2021/12/06 04:25:18;;;;;;;;;11.75;8.00;;;;;6.30;77.30;101083.19;4972517;28;48462;-74
2021/12/06 04:27:52;;;;;;;;;7.75;7.00;;;;;6.27;77.29;101079.63;4968414;28;45359;-73
2021/12/06 04:30:18;;;;;;;;;6.25;6.00;;;;;6.21;77.68;101071.44;4972717;28;45403;-73
2021/12/06 04:32:45;;;;;;;;;6.00;6.00;;;;;6.14;77.60;101058.88;4974118;28;45166;-74
2021/12/06 04:35:11;;;;;;;;;6.75;5.00;;;;;6.22;77.87;101069.72;4964657;28;45458;-73
2021/12/06 04:37:37;;;;;;;;;5.75;5.25;;;;;6.22;77.86;101075.88;4959077;28;45350;-73
2021/12/06 04:40:04;;;;;;;;;6.25;6.00;;;;;6.25;76.91;101089.13;4977136;28;45367;-73
2021/12/06 04:42:30;;;;;;;;;10.25;7.00;;;;;6.27;78.08;101095.38;4976089;28;45377;-73
2021/12/06 04:44:55;;;;;;;;;12.00;6.50;;;;;6.20;77.12;101103.78;4966131;28;48135;-73
2021/12/06 04:47:21;;;;;;;;;6.00;4.25;;;;;6.10;77.43;101098.91;5032453;28;45245;-73
2021/12/06 04:49:46;;;;;;;;;7.00;5.25;;;;;6.19;77.33;101116.81;4968025;28;45386;-73
2021/12/06 04:52:14;;;;;;;;;4.00;3.00;;;;;6.18;77.50;101115.91;4976712;28;45418;-74
2021/12/06 04:54:45;;;;;;;;;4.75;4.75;;;;;6.20;77.58;101108.13;4967282;28;45570;-73
2021/12/06 04:57:16;;;;;;;;;6.00;3.50;;;;;6.23;77.39;101116.13;4977242;28;45264;-73
2021/12/06 04:59:47;;;;;;;;;5.50;3.00;;;;;6.21;77.28;101108.19;5010906;28;45408;-73
2021/12/06 05:02:19;;;;;;;;;5.00;4.25;;;;;6.19;77.57;101112.47;4976624;28;45209;-73
2021/12/06 05:04:49;;;;;;;;;4.25;4.25;;;;;6.19;77.12;101120.34;4960497;28;46353;-73
2021/12/06 05:07:31;;;;;;;;;5.00;5.00;;;;;6.12;77.37;101122.63;4958558;28;45491;-73
2021/12/06 05:09:56;;;;;;;;;9.00;4.00;;;;;6.19;77.67;101133.47;4962633;28;45233;-73
2021/12/06 05:12:26;;;;;;;;;5.50;4.50;;;;;6.22;77.80;101128.38;4966108;28;45182;-73
2021/12/06 05:14:52;;;;;;;;;8.00;4.50;;;;;6.24;77.60;101139.81;4967509;28;46867;-74
2021/12/06 05:17:18;;;;;;;;;4.75;3.75;;;;;6.27;77.21;101141.69;4966984;28;45454;-73
2021/12/06 05:19:44;;;;;;;;;9.50;5.50;;;;;6.18;77.46;101123.78;4968279;28;45328;-73
2021/12/06 05:22:09;;;;;;;;;8.00;4.25;;;;;6.28;77.21;101133.00;5005824;28;45284;-73
2021/12/06 05:24:36;;;;;;;;;7.00;3.75;;;;;6.30;76.53;101136.59;4966260;28;46376;-73
2021/12/06 05:27:04;;;;;;;;;6.00;3.75;;;;;6.30;77.12;101147.09;4977578;28;45186;-73
2021/12/06 05:29:32;;;;;;;;;7.25;7.25;;;;;6.19;77.48;101132.56;4965155;28;45250;-74
2021/12/06 05:31:59;;;;;;;;;5.25;3.00;;;;;6.25;76.99;101146.00;4958224;28;45474;-74
2021/12/06 05:34:36;;;;;;;;;4.25;4.25;;;;;6.22;77.07;101149.38;4968097;28;45466;-73
2021/12/06 05:37:03;;;;;;;;;15.50;14.75;;;;;6.27;78.01;101158.38;4963028;28;45271;-73
2021/12/06 05:39:30;;;;;;;;;6.50;6.50;;;;;6.21;76.97;101152.81;4964941;28;45482;-73
2021/12/06 05:42:08;;;;;;;;;5.75;3.00;;;;;6.32;76.67;101166.44;4956839;28;45330;-73
2021/12/06 05:44:35;;;;;;;;;6.75;6.00;;;;;6.26;77.20;101167.03;4965526;28;45652;-73
2021/12/06 05:47:01;;;;;;;;;3.00;2.50;;;;;6.09;76.86;101139.09;5036061;28;45338;-73
2021/12/06 05:49:27;;;;;;;;;6.25;6.00;;;;;6.30;77.62;101169.81;4968294;28;45430;-73
2021/12/06 05:51:53;;;;;;;;;9.25;4.50;;;;;6.24;77.46;101152.94;4958001;28;45454;-73
2021/12/06 05:54:19;;;;;;;;;5.75;4.25;;;;;6.28;77.60;101170.66;4968139;28;45296;-73
2021/12/06 05:56:45;;;;;;;;;7.25;5.50;;;;;6.27;77.36;101161.00;4957971;28;45494;-74
2021/12/06 05:59:11;;;;;;;;;8.00;7.00;;;;;6.35;77.21;101176.19;4968307;28;45267;-74
2021/12/06 06:01:37;;;;;;;;;3.75;3.75;;;;;6.27;77.16;101168.88;4957721;28;45311;-74
2021/12/06 06:04:03;;;;;;;;;7.50;7.25;;;;;6.19;77.15;101151.84;4967017;28;45458;-74
2021/12/06 06:06:34;;;;;;;;;9.50;7.75;;;;;6.34;77.35;101185.78;4967210;28;45292;-73
2021/12/06 06:09:00;;;;;;;;;6.00;6.00;;;;;6.29;77.00;101176.81;4984183;28;45348;-73
2021/12/06 06:11:26;;;;;;;;;6.00;5.75;;;;;6.30;76.54;101181.22;5026209;28;46329;-73
2021/12/06 06:13:52;;;;;;;;;6.25;6.25;;;;;6.30;77.17;101186.47;4965940;28;45649;-73
2021/12/06 06:16:20;;;;;;;;;7.75;7.00;;;;;6.25;77.34;101185.38;4971026;28;45536;-73
2021/12/06 06:18:48;;;;;;;;;7.00;7.00;;;;;6.23;76.60;101185.28;4988547;28;45288;-73
2021/12/06 06:21:14;;;;;;;;;4.50;4.25;;;;;6.14;77.38;101169.09;4973526;28;45312;-73
2021/12/06 06:23:39;;;;;;;;;5.00;5.00;;;;;6.20;76.65;101181.63;4965720;28;46228;-73
2021/12/06 06:26:05;;;;;;;;;8.00;7.00;;;;;6.23;77.58;101198.41;4972608;28;45310;-73
2021/12/06 06:28:31;;;;;;;;;10.00;6.50;;;;;6.10;77.07;101174.13;4967258;28;45603;-73
2021/12/06 06:30:56;;;;;;;;;6.75;6.00;;;;;6.05;77.40;101174.81;4964257;28;45334;-73
2021/12/06 06:33:21;;;;;;;;;7.00;6.50;;;;;6.07;77.02;101171.34;4960696;28;48280;-73
2021/12/06 06:35:47;;;;;;;;;5.25;5.00;;;;;6.10;76.75;101187.25;4961815;28;45305;-73
2021/12/06 06:38:13;;;;;;;;;9.50;7.25;;;;;6.07;76.89;101198.47;4961372;28;45608;-73
2021/12/06 06:40:39;;;;;;;;;7.00;6.00;;;;;5.98;77.02;101201.56;4963000;28;45960;-73
2021/12/06 06:43:04;;;;;;;;;7.00;4.50;;;;;5.94;77.31;101204.88;4959155;28;45332;-73
2021/12/06 06:45:30;;;;;;;;;9.50;5.00;;;;;5.89;76.71;101185.34;4970582;28;45436;-73
2021/12/06 06:47:55;;;;;;;;;11.00;6.25;;;;;5.85;77.07;101196.50;5024557;27;45370;-73
2021/12/06 06:50:21;;;;;;;;;9.00;7.25;;;;;5.90;77.31;101208.13;4964017;28;46181;-73
2021/12/06 06:52:48;;;;;;;;;10.50;7.00;;;;;5.88;76.86;101214.09;4956768;28;46557;-73
2021/12/06 06:55:15;;;;;;;;;6.75;6.50;;;;;5.80;76.91;101214.66;4966539;28;45194;-74
2021/12/06 06:57:42;;;;;;;;;11.50;7.00;;;;;5.69;77.25;101199.19;4962515;28;45246;-73
2021/12/06 07:00:26;;;;;;;;;8.75;7.00;;;;;5.76;77.17;101225.78;4968619;28;45381;-73
2021/12/06 07:02:52;;;;;;;;;9.25;7.00;;;;;5.75;77.32;101223.09;4962174;28;45558;-73
2021/12/06 07:05:18;;;;;;;;;11.50;7.75;;;;;5.76;77.35;101233.66;4968402;28;45362;-73
2021/12/06 07:07:43;;;;;;;;;8.25;7.00;;;;;5.69;77.13;101225.44;5004168;28;46472;-73
2021/12/06 07:10:09;;;;;;;;;11.50;10.00;;;;;5.74;77.57;101239.66;4962942;28;45380;-73
2021/12/06 07:12:43;;;;;;;;;10.50;10.00;;;;;5.79;78.13;101248.66;4970090;28;46847;-73
2021/12/06 07:15:11;;;;;;;;;9.75;9.75;;;;;5.68;77.92;101235.00;4967277;28;45398;-73
2021/12/06 07:17:38;;;;;;;;;8.00;8.00;;;;;5.71;77.14;101243.00;5011466;28;45447;-72
2021/12/06 07:20:05;;;;;;;;;8.50;6.25;;;;;5.66;77.54;101231.41;4966575;28;45545;-73
2021/12/06 07:22:30;;;;;;;;;12.75;11.25;;;;;5.67;77.11;101245.41;4976858;28;45527;-73
2021/12/06 07:24:55;;;;;;;;;11.00;11.00;;;;;5.63;77.10;101247.00;4966352;28;45280;-73
2021/12/06 07:27:21;;;;;;;;;8.00;8.00;;;;;5.51;77.24;101243.72;4976267;28;45626;-72
2021/12/06 07:29:46;;;;;;;;;13.00;11.50;;;;;5.47;77.20;101247.00;4973256;28;46139;-72
2021/12/06 07:32:12;;;;;;;;;12.00;10.25;;;;;5.44;77.91;101254.72;4974315;28;47236;-72
2021/12/06 07:34:37;;;;;;;;;16.00;11.25;;;;;5.48;78.06;101256.66;4970300;28;45998;-73
2021/12/06 07:37:04;;;;;;;;;19.25;12.75;;;;;5.43;77.60;101247.66;4960337;28;45492;-73
2021/12/06 07:39:30;;;;;;;;;13.00;11.25;;;;;5.46;77.19;101259.22;4965942;28;45500;-73
2021/12/06 07:41:56;;;;;;;;;11.00;9.25;;;;;5.36;77.62;101249.06;4958915;28;45574;-72
2021/12/06 07:44:22;;;;;;;;;14.00;12.50;;;;;5.40;78.31;101256.25;4959158;28;45890;-72
2021/12/06 07:46:50;;;;;;;;;16.75;11.50;;;;;5.49;78.47;101255.84;4975818;28;45301;-72
2021/12/06 07:49:15;;;;;;;;;11.50;11.50;;;;;5.44;77.78;101250.38;4959317;28;45412;-73
2021/12/06 07:51:41;;;;;;;;;17.00;13.00;;;;;5.46;78.23;101258.31;4958983;28;46336;-72
2021/12/06 07:54:06;;;;;;;;;12.00;12.00;;;;;5.38;78.93;101252.69;4965361;28;45410;-73
2021/12/06 07:56:32;;;;;;;;;16.50;13.25;;;;;5.50;78.57;101269.03;4959261;28;45399;-72
2021/12/06 07:58:57;;;;;;;;;21.50;19.75;;;;;5.51;78.88;101251.59;4965031;28;45427;-72
2021/12/06 08:01:23;;;;;;;;;17.00;15.50;;;;;5.55;78.87;101251.84;4959146;28;45331;-72
2021/12/06 08:03:48;;;;;;;;;21.75;18.75;;;;;5.68;78.72;101266.47;4964459;28;45267;-73
2021/12/06 08:06:14;;;;;;;;;20.75;17.00;;;;;5.71;78.51;101264.00;4959289;28;45497;-73
2021/12/06 08:08:40;;;;;;;;;13.00;11.75;;;;;5.49;77.97;101219.13;4977883;28;45440;-72
2021/12/06 08:11:11;;;;;;;;;11.50;11.00;;;;;5.74;78.43;101253.69;4959321;28;45512;-72
2021/12/06 08:13:39;;;;;;;;;16.00;15.75;;;;;5.70;78.58;101235.09;4972214;28;45436;-73
2021/12/06 08:16:11;;;;;;;;;53.00;44.25;;;;;5.76;78.16;101240.63;4969685;28;45339;-73
2021/12/06 08:18:37;;;;;;;;;54.75;45.75;;;;;5.77;78.64;101245.03;4998466;28;45364;-73
2021/12/06 08:21:04;;;;;;;;;19.75;14.50;;;;;5.81;78.29;101245.28;4958015;28;47074;-73
2021/12/06 08:23:31;;;;;;;;;19.50;11.00;;;;;6.03;78.40;101255.19;4961094;28;45265;-73
2021/12/06 08:25:57;;;;;;;;;12.75;11.50;;;;;6.01;79.24;101221.81;4973337;28;45603;-72
2021/12/06 08:28:23;;;;;;;;;13.25;12.25;;;;;6.13;79.62;101225.03;4972249;28;45512;-73
2021/12/06 08:30:50;;;;;;;;;11.00;11.00;;;;;6.24;78.34;101233.44;4978432;28;45485;-73
2021/12/06 08:33:17;;;;;;;;;17.75;12.50;;;;;6.24;78.52;101230.78;4971893;28;45459;-72
2021/12/06 08:35:45;;;;;;;;;21.00;13.00;;;;;6.38;78.22;101250.75;4965931;27;45351;-73
2021/12/06 08:38:11;;;;;;;;;38.50;32.75;;;;;6.46;77.71;101254.63;4961386;28;45310;-72
2021/12/06 08:40:40;;;;;;;;;26.25;23.75;;;;;6.63;78.04;101255.44;4962418;27;47500;-73
2021/12/06 08:43:05;;;;;;;;;25.75;23.75;;;;;6.70;77.99;101244.41;4961306;28;45275;-72
2021/12/06 08:45:32;;;;;;;;;21.25;17.00;;;;;6.77;77.58;101242.97;4975346;28;45407;-73
2021/12/06 08:47:58;;;;;;;;;21.75;18.25;;;;;6.85;77.65;101235.44;5026152;28;45459;-73
2021/12/06 08:50:25;;;;;;;;;21.75;18.50;;;;;7.02;78.03;101234.47;4966927;28;45453;-72
2021/12/06 08:52:52;;;;;;;;;17.75;16.00;;;;;7.11;77.30;101232.28;4963483;28;45945;-73
2021/12/06 08:55:18;;;;;;;;;16.00;12.50;;;;;7.10;76.45;101225.22;4968152;28;45284;-73
2021/12/06 08:57:44;;;;;;;;;18.75;14.50;;;;;7.15;76.72;101220.19;4961108;28;45528;-72
2021/12/06 09:00:15;;;;;;;;;18.00;17.75;;;;;7.11;76.43;101210.34;4967156;28;45314;-73
2021/12/06 09:02:40;;;;;;;;;12.50;8.75;;;;;7.26;75.62;101229.44;4960641;28;45405;-73
2021/12/06 09:05:07;;;;;;;;;17.75;12.25;;;;;7.15;75.82;101205.31;4965671;28;45293;-72
2021/12/06 09:07:33;;;;;;;;;18.50;14.00;;;;;7.20;75.81;101207.22;4963923;28;44813;-73
2021/12/06 09:09:59;;;;;;;;;18.75;14.25;;;;;7.21;75.37;101215.19;4967857;28;47100;-73
2021/12/06 09:12:27;;;;;;;;;11.50;8.75;;;;;7.30;75.16;101231.38;4975978;28;45489;-72
2021/12/06 09:14:55;;;;;;;;;14.50;13.00;;;;;7.24;74.61;101220.56;4968483;28;45373;-72
2021/12/06 09:17:21;;;;;;;;;13.75;10.25;;;;;7.24;75.11;101236.34;5005030;28;45560;-73
2021/12/06 09:19:47;;;;;;;;;13.25;8.00;;;;;7.33;75.22;101249.00;4972620;28;47393;-72
2021/12/06 09:22:13;;;;;;;;;14.50;11.75;;;;;7.20;74.42;101239.69;4976306;28;45316;-72
2021/12/06 09:24:39;;;;;;;;;14.50;9.00;;;;;7.32;74.68;101252.47;4963059;28;45413;-72
2021/12/06 09:27:06;;;;;;;;;12.00;8.50;;;;;7.22;74.87;101211.72;4970099;28;45501;-72
2021/12/06 09:29:33;;;;;;;;;10.25;8.50;;;;;7.34;74.19;101235.06;4958804;28;45380;-72
2021/12/06 09:32:00;;;;;;;;;10.75;9.00;;;;;7.38;73.50;101255.38;4957814;28;44698;-71
2021/12/06 09:34:27;;;;;;;;;9.00;7.75;;;;;7.37;74.57;101251.84;4967490;28;45462;-72
2021/12/06 09:36:54;;;;;;;;;9.25;9.00;;;;;7.38;73.70;101248.38;4960673;28;45198;-72
2021/12/06 09:39:20;;;;;;;;;23.00;19.00;;;;;7.32;74.44;101240.22;4968473;28;45414;-72
2021/12/06 09:41:46;;;;;;;;;15.25;14.25;;;;;7.17;73.64;101206.28;4958248;28;45266;-72
2021/12/06 09:44:13;;;;;;;;;20.00;19.00;;;;;7.41;74.42;101242.34;4960788;28;46404;-72
2021/12/06 09:46:39;;;;;;;;;17.75;13.25;;;;;7.41;73.92;101234.47;4988306;28;47062;-72
2021/12/06 09:49:08;;;;;;;;;11.50;8.25;;;;;7.45;73.78;101236.41;4963076;28;47978;-72
2021/12/06 09:51:35;;;;;;;;;15.50;13.00;;;;;7.43;74.43;101226.66;4957672;28;45253;-72
2021/12/06 09:54:01;;;;;;;;;10.25;10.25;;;;;7.46;74.54;101225.06;4961384;28;45703;-72
2021/12/06 09:56:36;;;;;;;;;10.00;9.25;;;;;7.47;73.54;101223.31;4975697;28;45339;-72
2021/12/06 09:59:06;;;;;;;;;15.50;12.00;;;;;7.50;74.00;101229.59;4971150;28;45302;-72
2021/12/06 10:01:37;;;;;;;;;13.75;10.00;;;;;7.30;72.84;101193.66;4958638;28;45339;-72
2021/12/06 10:04:04;;;;;;;;;14.00;14.00;;;;;7.54;73.32;101242.06;4967037;28;45405;-72
2021/12/06 10:06:30;;;;;;;;;14.25;14.00;;;;;7.52;72.93;101241.09;4968135;28;45476;-71
2021/12/06 10:08:58;;;;;;;;;14.25;12.00;;;;;7.56;72.40;101250.00;4978827;28;45485;-71
2021/12/06 10:11:26;;;;;;;;;14.00;10.50;;;;;7.60;72.65;101238.81;4972636;28;45270;-71
2021/12/06 10:13:52;;;;;;;;;17.50;14.50;;;;;7.52;72.88;101214.78;4965920;28;45332;-71
2021/12/06 10:16:19;;;;;;;;;12.00;9.75;;;;;7.61;73.76;101223.06;4973001;28;45340;-71
2021/12/06 10:18:44;;;;;;;;;10.00;9.25;;;;;7.58;71.54;101201.00;4992253;28;45408;-72
2021/12/06 10:21:11;;;;;;;;;12.75;11.25;;;;;7.56;71.88;101193.06;4968685;28;45368;-71
2021/12/06 10:23:38;;;;;;;;;11.25;9.50;;;;;7.70;71.77;101205.88;4960072;28;45304;-71
2021/12/06 10:26:07;;;;;;;;;13.00;10.00;;;;;7.70;72.08;101201.56;4972104;28;45269;-71
2021/12/06 10:28:33;;;;;;;;;14.50;10.00;;;;;7.76;73.43;101206.16;4968541;28;47537;-71
2021/12/06 10:31:04;;;;;;;;;12.00;9.75;;;;;7.73;72.67;101192.84;4960014;28;45848;-71
2021/12/06 10:33:34;;;;;;;;;16.50;14.75;;;;;7.79;72.04;101190.50;4969729;28;45249;-71
2021/12/06 10:36:04;;;;;;;;;15.50;12.25;;;;;7.76;71.83;101174.59;4969861;28;46250;-71
2021/12/06 10:38:33;;;;;;;;;16.00;12.50;;;;;7.81;72.03;101173.94;4961141;28;47532;-71
2021/12/06 10:41:05;;;;;;;;;9.25;9.25;;;;;7.82;72.67;101174.84;4959622;28;45285;-71
2021/12/06 10:43:31;;;;;;;;;12.75;10.25;;;;;7.85;72.08;101170.59;4957498;28;45349;-72
2021/12/06 10:45:59;;;;;;;;;12.75;8.00;;;;;7.90;71.25;101176.06;4983554;28;45293;-72
2021/12/06 10:48:30;;;;;;;;;10.00;8.50;;;;;7.90;71.65;101157.63;4988070;27;45421;-71
2021/12/06 10:51:12;;;;;;;;;12.50;9.25;;;;;7.72;71.71;101118.28;4962048;28;45318;-72
2021/12/06 10:53:49;;;;;;;;;11.50;9.50;;;;;7.99;72.24;101144.84;4962856;28;45713;-72
2021/12/06 10:56:24;;;;;;;;;14.50;12.75;;;;;8.02;71.94;101133.53;4960377;28;45415;-72
2021/12/06 10:58:54;;;;;;;;;11.25;9.75;;;;;7.92;71.72;101108.56;4960001;28;47333;-71
2021/12/06 11:01:26;;;;;;;;;11.75;9.75;;;;;7.96;71.55;101117.50;4956905;28;45350;-71
2021/12/06 11:03:55;;;;;;;;;10.25;9.25;;;;;8.04;70.74;101140.66;4961319;28;45365;-71
2021/12/06 11:06:29;;;;;;;;;14.25;11.50;;;;;7.99;71.14;101118.50;4956222;28;45450;-72
2021/12/06 11:08:58;;;;;;;;;10.00;10.00;;;;;8.10;71.85;101132.09;4966973;28;46994;-71
2021/12/06 11:11:34;;;;;;;;;8.00;6.50;;;;;8.11;71.54;101122.47;4960452;28;45241;-72
2021/12/06 11:14:22;;;;;;;;;11.00;10.50;;;;;8.16;71.52;101129.72;4961936;28;44816;-71
2021/12/06 11:17:00;;;;;;;;;11.50;10.00;;;;;8.18;71.27;101117.50;4955582;28;46492;-71
2021/12/06 11:19:28;;;;;;;;;13.50;11.25;;;;;8.21;70.31;101120.25;4963316;28;47210;-71
2021/12/06 11:22:10;;;;;;;;;13.00;10.00;;;;;8.28;69.92;101126.66;4969439;28;45466;-71
2021/12/06 11:24:43;;;;;;;;;15.00;11.00;;;;;8.36;71.18;101129.59;4960638;28;44690;-71
2021/12/06 11:27:13;;;;;;;;;11.25;10.00;;;;;8.42;71.10;101129.84;4956364;28;45432;-71
2021/12/06 11:29:44;;;;;;;;;9.50;8.75;;;;;8.43;70.80;101124.66;4971320;28;48174;-72
2021/12/06 11:32:20;;;;;;;;;11.25;11.25;;;;;8.57;71.13;101122.53;4956069;28;45365;-71
2021/12/06 11:34:54;;;;;;;;;10.50;9.75;;;;;8.61;70.77;101107.75;4966709;28;45361;-71
2021/12/06 11:37:25;;;;;;;;;13.25;9.00;;;;;8.52;69.64;101085.47;4956290;28;45276;-71
2021/12/06 11:40:17;;;;;;;;;7.50;7.00;;;;;8.65;70.69;101101.72;4965028;28;46835;-71
2021/12/06 11:42:56;;;;;;;;;8.00;7.50;;;;;8.64;69.90;101090.28;4977498;28;45816;-72